Pismo Beach, California
Current Conditions -  °F | °C
As of 2:56 PM on Wednesday 26 Nov 2014 (Local Time) from KSBP Reporting Station
Clear Clear  
Wind Chill: 83°   Ceiling: Unl
Heat Index: 83°   Visibility: 10mi
Dew Point: 30°   Wind: 6mph
Humidity: 15%   Direction: 300°WNW
Pressure: 30.16"   Gusts: NA
Location:  35.16°N, 120.66°W
Report Text: KSBP 262256Z 30005KT 10SM CLR 28/M01 A3016 RMK AO2 SLP210 T02831011
Loading
Personal Weather Stations






























Interactive Weather Map New forecast layout! Learn more

10-Day Weather Forecast

Advertisements
Track Severe Weather on mobile